Farmersville, New York
Current Conditions -  °F | °C
As of 10:35 AM on Thursday 30 Oct 2014 (Local Time) from KOLE Reporting Station
Overcast Overcast  
Wind Chill: 33°   Ceiling: 1500
Heat Index: 37°   Visibility: 10mi
Dew Point: 37°   Wind: 6mph
Humidity: 100%   Direction: 300°WNW
Pressure: 30.04"   Gusts: NA
Location:  42.4422°N, 78.2936°W
Report Text: KOLE 301435Z AUTO 30005KT 10SM BKN015 OVC020 03/03 A3004 RMK AO2
Loading
Personal Weather Stations






























Interactive Weather Map
Tropical Storm Tracking
New forecast layout! Learn more

10-Day Weather Forecast

Advertisements
Track Severe Weather on mobile